sensor_id;sensor_type;location;lat;lon;timestamp;P1;durP1;ratioP1;P2;durP2;ratioP2
3939;SDS011;1984;48.312;9.244;2023-02-15T00:00:19;76.57;;;16.73;;
3939;SDS011;1984;48.312;9.244;2023-02-15T00:02:45;67.10;;;15.13;;
3939;SDS011;1984;48.312;9.244;2023-02-15T00:05:11;37.53;;;15.63;;
3939;SDS011;1984;48.312;9.244;2023-02-15T00:07:36;60.57;;;15.30;;
3939;SDS011;1984;48.312;9.244;2023-02-15T00:10:02;99.17;;;15.17;;
3939;SDS011;1984;48.312;9.244;2023-02-15T00:12:28;131.37;;;18.07;;
3939;SDS011;1984;48.312;9.244;2023-02-15T00:14:53;81.03;;;16.30;;
3939;SDS011;1984;48.312;9.244;2023-02-15T00:17:19;44.80;;;16.03;;
3939;SDS011;1984;48.312;9.244;2023-02-15T00:19:45;39.30;;;15.17;;
3939;SDS011;1984;48.312;9.244;2023-02-15T00:22:10;44.37;;;13.90;;
3939;SDS011;1984;48.312;9.244;2023-02-15T00:24:36;49.27;;;14.13;;
3939;SDS011;1984;48.312;9.244;2023-02-15T00:27:01;53.97;;;14.00;;
3939;SDS011;1984;48.312;9.244;2023-02-15T00:29:27;110.73;;;16.00;;
3939;SDS011;1984;48.312;9.244;2023-02-15T00:31:53;31.03;;;14.50;;
3939;SDS011;1984;48.312;9.244;2023-02-15T00:34:20;52.17;;;13.90;;
3939;SDS011;1984;48.312;9.244;2023-02-15T00:36:47;61.50;;;14.20;;
3939;SDS011;1984;48.312;9.244;2023-02-15T00:39:13;68.37;;;13.80;;
3939;SDS011;1984;48.312;9.244;2023-02-15T00:41:40;75.43;;;15.10;;
3939;SDS011;1984;48.312;9.244;2023-02-15T00:44:05;94.77;;;16.53;;
3939;SDS011;1984;48.312;9.244;2023-02-15T00:46:32;63.97;;;15.57;;
3939;SDS011;1984;48.312;9.244;2023-02-15T00:48:58;105.37;;;16.90;;
3939;SDS011;1984;48.312;9.244;2023-02-15T00:51:23;137.83;;;15.20;;
3939;SDS011;1984;48.312;9.244;2023-02-15T00:53:50;172.23;;;16.90;;
3939;SDS011;1984;48.312;9.244;2023-02-15T00:56:16;87.17;;;15.20;;
3939;SDS011;1984;48.312;9.244;2023-02-15T00:58:41;47.73;;;14.70;;
3939;SDS011;1984;48.312;9.244;2023-02-15T01:01:08;45.20;;;13.77;;
3939;SDS011;1984;48.312;9.244;2023-02-15T01:03:36;42.10;;;14.30;;
3939;SDS011;1984;48.312;9.244;2023-02-15T01:06:03;44.67;;;14.70;;
3939;SDS011;1984;48.312;9.244;2023-02-15T01:08:29;105.67;;;14.50;;
3939;SDS011;1984;48.312;9.244;2023-02-15T01:10:55;37.77;;;14.47;;
3939;SDS011;1984;48.312;9.244;2023-02-15T01:13:21;26.73;;;13.33;;
3939;SDS011;1984;48.312;9.244;2023-02-15T01:15:52;23.97;;;13.03;;
3939;SDS011;1984;48.312;9.244;2023-02-15T01:18:19;67.63;;;15.30;;
3939;SDS011;1984;48.312;9.244;2023-02-15T01:20:45;43.37;;;14.33;;
3939;SDS011;1984;48.312;9.244;2023-02-15T01:23:12;34.03;;;13.60;;
3939;SDS011;1984;48.312;9.244;2023-02-15T01:25:37;71.30;;;14.90;;
3939;SDS011;1984;48.312;9.244;2023-02-15T01:28:03;36.83;;;13.43;;
3939;SDS011;1984;48.312;9.244;2023-02-15T01:30:29;36.13;;;12.17;;
3939;SDS011;1984;48.312;9.244;2023-02-15T01:32:54;33.63;;;12.93;;
3939;SDS011;1984;48.312;9.244;2023-02-15T01:35:20;46.97;;;13.80;;
3939;SDS011;1984;48.312;9.244;2023-02-15T01:37:45;95.33;;;15.83;;
3939;SDS011;1984;48.312;9.244;2023-02-15T01:40:12;46.83;;;14.30;;
3939;SDS011;1984;48.312;9.244;2023-02-15T01:42:39;37.97;;;13.30;;
3939;SDS011;1984;48.312;9.244;2023-02-15T01:47:44;69.53;;;14.20;;
3939;SDS011;1984;48.312;9.244;2023-02-15T01:50:23;34.73;;;13.77;;
3939;SDS011;1984;48.312;9.244;2023-02-15T01:52:53;39.50;;;12.00;;
3939;SDS011;1984;48.312;9.244;2023-02-15T01:55:27;24.47;;;12.43;;
3939;SDS011;1984;48.312;9.244;2023-02-15T01:57:57;43.37;;;13.63;;
3939;SDS011;1984;48.312;9.244;2023-02-15T02:00:24;65.70;;;14.30;;
3939;SDS011;1984;48.312;9.244;2023-02-15T02:02:50;50.83;;;14.10;;
3939;SDS011;1984;48.312;9.244;2023-02-15T02:05:20;60.57;;;13.63;;
3939;SDS011;1984;48.312;9.244;2023-02-15T02:07:45;63.93;;;14.27;;
3939;SDS011;1984;48.312;9.244;2023-02-15T02:10:17;48.10;;;14.60;;
3939;SDS011;1984;48.312;9.244;2023-02-15T02:12:44;33.07;;;12.13;;
3939;SDS011;1984;48.312;9.244;2023-02-15T02:15:11;46.80;;;13.90;;
3939;SDS011;1984;48.312;9.244;2023-02-15T02:17:43;24.60;;;12.10;;
3939;SDS011;1984;48.312;9.244;2023-02-15T02:20:38;25.33;;;12.33;;
3939;SDS011;1984;48.312;9.244;2023-02-15T02:23:16;30.70;;;14.30;;
3939;SDS011;1984;48.312;9.244;2023-02-15T02:33:59;39.23;;;12.70;;
3939;SDS011;1984;48.312;9.244;2023-02-15T02:39:12;34.43;;;13.13;;
3939;SDS011;1984;48.312;9.244;2023-02-15T02:42:10;30.70;;;13.80;;
3939;SDS011;1984;48.312;9.244;2023-02-15T02:44:44;29.80;;;13.53;;
3939;SDS011;1984;48.312;9.244;2023-02-15T02:49:59;19.67;;;10.63;;
3939;SDS011;1984;48.312;9.244;2023-02-15T02:52:37;26.03;;;12.27;;
3939;SDS011;1984;48.312;9.244;2023-02-15T02:57:44;29.20;;;13.90;;
3939;SDS011;1984;48.312;9.244;2023-02-15T03:00:17;27.10;;;12.47;;
3939;SDS011;1984;48.312;9.244;2023-02-15T03:02:45;26.00;;;11.30;;
3939;SDS011;1984;48.312;9.244;2023-02-15T03:05:15;25.37;;;13.10;;
3939;SDS011;1984;48.312;9.244;2023-02-15T03:07:46;21.00;;;11.70;;
3939;SDS011;1984;48.312;9.244;2023-02-15T03:10:16;23.50;;;13.53;;
3939;SDS011;1984;48.312;9.244;2023-02-15T03:12:45;19.20;;;11.07;;
3939;SDS011;1984;48.312;9.244;2023-02-15T03:15:16;24.80;;;11.70;;
3939;SDS011;1984;48.312;9.244;2023-02-15T03:18:15;24.40;;;11.33;;
3939;SDS011;1984;48.312;9.244;2023-02-15T03:20:45;23.93;;;10.63;;
3939;SDS011;1984;48.312;9.244;2023-02-15T03:23:16;19.43;;;10.47;;
3939;SDS011;1984;48.312;9.244;2023-02-15T03:25:48;22.10;;;10.73;;
3939;SDS011;1984;48.312;9.244;2023-02-15T03:28:19;16.83;;;9.60;;
3939;SDS011;1984;48.312;9.244;2023-02-15T03:30:51;17.10;;;9.97;;
3939;SDS011;1984;48.312;9.244;2023-02-15T03:33:19;20.67;;;10.00;;
3939;SDS011;1984;48.312;9.244;2023-02-15T03:35:49;20.40;;;10.60;;
3939;SDS011;1984;48.312;9.244;2023-02-15T03:38:40;16.07;;;8.83;;
3939;SDS011;1984;48.312;9.244;2023-02-15T03:41:12;19.27;;;9.90;;
3939;SDS011;1984;48.312;9.244;2023-02-15T03:43:55;16.03;;;10.37;;
3939;SDS011;1984;48.312;9.244;2023-02-15T03:46:28;14.90;;;10.00;;
3939;SDS011;1984;48.312;9.244;2023-02-15T03:49:07;15.33;;;8.67;;
3939;SDS011;1984;48.312;9.244;2023-02-15T03:51:43;15.53;;;8.73;;
3939;SDS011;1984;48.312;9.244;2023-02-15T04:00:24;20.40;;;9.43;;
3939;SDS011;1984;48.312;9.244;2023-02-15T04:05:39;20.87;;;9.60;;
3939;SDS011;1984;48.312;9.244;2023-02-15T04:08:06;15.83;;;8.30;;
3939;SDS011;1984;48.312;9.244;2023-02-15T04:10:32;15.80;;;8.73;;
3939;SDS011;1984;48.312;9.244;2023-02-15T04:13:16;18.13;;;9.20;;
3939;SDS011;1984;48.312;9.244;2023-02-15T04:15:41;19.67;;;9.27;;
3939;SDS011;1984;48.312;9.244;2023-02-15T04:18:25;15.03;;;8.60;;
3939;SDS011;1984;48.312;9.244;2023-02-15T04:21:09;18.30;;;9.73;;
3939;SDS011;1984;48.312;9.244;2023-02-15T04:23:53;22.93;;;10.53;;
3939;SDS011;1984;48.312;9.244;2023-02-15T04:26:37;20.57;;;9.00;;
3939;SDS011;1984;48.312;9.244;2023-02-15T04:29:03;17.27;;;9.30;;
3939;SDS011;1984;48.312;9.244;2023-02-15T04:31:28;13.23;;;7.73;;
3939;SDS011;1984;48.312;9.244;2023-02-15T04:33:54;20.10;;;10.10;;
3939;SDS011;1984;48.312;9.244;2023-02-15T04:36:19;14.10;;;8.40;;
3939;SDS011;1984;48.312;9.244;2023-02-15T04:38:46;17.50;;;9.97;;
3939;SDS011;1984;48.312;9.244;2023-02-15T04:41:11;19.53;;;9.77;;
3939;SDS011;1984;48.312;9.244;2023-02-15T04:43:38;20.63;;;10.90;;
3939;SDS011;1984;48.312;9.244;2023-02-15T04:46:03;20.17;;;9.63;;
3939;SDS011;1984;48.312;9.244;2023-02-15T04:48:29;22.40;;;10.40;;
3939;SDS011;1984;48.312;9.244;2023-02-15T04:50:55;20.30;;;9.47;;
3939;SDS011;1984;48.312;9.244;2023-02-15T04:53:20;19.60;;;8.80;;
3939;SDS011;1984;48.312;9.244;2023-02-15T04:55:46;16.90;;;8.63;;
3939;SDS011;1984;48.312;9.244;2023-02-15T04:58:12;20.67;;;8.53;;
3939;SDS011;1984;48.312;9.244;2023-02-15T05:00:37;17.13;;;8.97;;
3939;SDS011;1984;48.312;9.244;2023-02-15T05:03:03;16.03;;;8.67;;
3939;SDS011;1984;48.312;9.244;2023-02-15T05:05:28;13.47;;;8.10;;
3939;SDS011;1984;48.312;9.244;2023-02-15T05:07:54;19.07;;;9.47;;
3939;SDS011;1984;48.312;9.244;2023-02-15T05:10:19;17.97;;;8.53;;
3939;SDS011;1984;48.312;9.244;2023-02-15T05:12:45;16.60;;;8.20;;
3939;SDS011;1984;48.312;9.244;2023-02-15T05:15:10;19.10;;;8.77;;
3939;SDS011;1984;48.312;9.244;2023-02-15T05:17:36;17.47;;;9.70;;
3939;SDS011;1984;48.312;9.244;2023-02-15T05:20:02;15.50;;;8.00;;
3939;SDS011;1984;48.312;9.244;2023-02-15T05:22:29;16.90;;;7.93;;
3939;SDS011;1984;48.312;9.244;2023-02-15T05:24:54;12.83;;;7.50;;
3939;SDS011;1984;48.312;9.244;2023-02-15T05:27:43;14.90;;;7.03;;
3939;SDS011;1984;48.312;9.244;2023-02-15T05:30:28;18.67;;;8.67;;
3939;SDS011;1984;48.312;9.244;2023-02-15T05:32:53;17.50;;;8.20;;
3939;SDS011;1984;48.312;9.244;2023-02-15T05:35:18;18.30;;;9.23;;
3939;SDS011;1984;48.312;9.244;2023-02-15T05:37:44;16.33;;;8.93;;
3939;SDS011;1984;48.312;9.244;2023-02-15T05:40:10;15.27;;;8.20;;
3939;SDS011;1984;48.312;9.244;2023-02-15T05:42:36;13.93;;;7.80;;
3939;SDS011;1984;48.312;9.244;2023-02-15T05:45:01;13.20;;;7.43;;
3939;SDS011;1984;48.312;9.244;2023-02-15T05:47:28;15.77;;;9.10;;
3939;SDS011;1984;48.312;9.244;2023-02-15T05:49:54;19.30;;;9.03;;
3939;SDS011;1984;48.312;9.244;2023-02-15T05:52:19;14.20;;;7.37;;
3939;SDS011;1984;48.312;9.244;2023-02-15T05:54:45;20.00;;;8.70;;
3939;SDS011;1984;48.312;9.244;2023-02-15T05:57:10;16.70;;;8.80;;
3939;SDS011;1984;48.312;9.244;2023-02-15T05:59:36;18.40;;;8.30;;
3939;SDS011;1984;48.312;9.244;2023-02-15T06:02:01;18.00;;;8.93;;
3939;SDS011;1984;48.312;9.244;2023-02-15T06:04:27;18.40;;;10.17;;
3939;SDS011;1984;48.312;9.244;2023-02-15T06:06:52;16.27;;;8.80;;
3939;SDS011;1984;48.312;9.244;2023-02-15T06:09:18;21.33;;;10.57;;
3939;SDS011;1984;48.312;9.244;2023-02-15T06:11:44;17.87;;;9.30;;
3939;SDS011;1984;48.312;9.244;2023-02-15T06:14:10;23.20;;;8.40;;
3939;SDS011;1984;48.312;9.244;2023-02-15T06:16:36;15.73;;;7.90;;
3939;SDS011;1984;48.312;9.244;2023-02-15T06:19:02;15.47;;;7.77;;
3939;SDS011;1984;48.312;9.244;2023-02-15T06:21:29;14.53;;;8.10;;
3939;SDS011;1984;48.312;9.244;2023-02-15T06:23:55;16.40;;;8.63;;
3939;SDS011;1984;48.312;9.244;2023-02-15T06:26:20;16.60;;;8.87;;
3939;SDS011;1984;48.312;9.244;2023-02-15T06:28:46;14.77;;;7.83;;
3939;SDS011;1984;48.312;9.244;2023-02-15T06:31:11;11.73;;;6.43;;
3939;SDS011;1984;48.312;9.244;2023-02-15T06:33:37;12.80;;;7.47;;
3939;SDS011;1984;48.312;9.244;2023-02-15T06:36:04;12.47;;;7.23;;
3939;SDS011;1984;48.312;9.244;2023-02-15T06:38:30;18.90;;;6.87;;
3939;SDS011;1984;48.312;9.244;2023-02-15T06:40:55;16.70;;;8.70;;
3939;SDS011;1984;48.312;9.244;2023-02-15T06:43:21;20.67;;;11.80;;
3939;SDS011;1984;48.312;9.244;2023-02-15T06:45:46;22.00;;;12.87;;
3939;SDS011;1984;48.312;9.244;2023-02-15T06:48:12;13.50;;;9.20;;
3939;SDS011;1984;48.312;9.244;2023-02-15T06:50:39;13.73;;;8.70;;
3939;SDS011;1984;48.312;9.244;2023-02-15T06:53:04;11.80;;;7.50;;
3939;SDS011;1984;48.312;9.244;2023-02-15T06:55:30;16.87;;;8.97;;
3939;SDS011;1984;48.312;9.244;2023-02-15T06:57:55;20.50;;;10.37;;
3939;SDS011;1984;48.312;9.244;2023-02-15T07:00:22;14.83;;;7.70;;
3939;SDS011;1984;48.312;9.244;2023-02-15T07:02:48;14.87;;;7.90;;
3939;SDS011;1984;48.312;9.244;2023-02-15T07:05:20;12.17;;;8.20;;
3939;SDS011;1984;48.312;9.244;2023-02-15T07:07:46;23.80;;;8.80;;
3939;SDS011;1984;48.312;9.244;2023-02-15T07:10:11;15.40;;;7.57;;
3939;SDS011;1984;48.312;9.244;2023-02-15T07:12:37;21.07;;;9.60;;
3939;SDS011;1984;48.312;9.244;2023-02-15T07:15:14;18.00;;;8.53;;
3939;SDS011;1984;48.312;9.244;2023-02-15T07:17:41;15.83;;;9.00;;
3939;SDS011;1984;48.312;9.244;2023-02-15T07:20:14;16.40;;;8.47;;
3939;SDS011;1984;48.312;9.244;2023-02-15T07:22:45;18.53;;;9.70;;
3939;SDS011;1984;48.312;9.244;2023-02-15T07:25:11;19.73;;;10.13;;
3939;SDS011;1984;48.312;9.244;2023-02-15T07:27:37;32.77;;;11.47;;
3939;SDS011;1984;48.312;9.244;2023-02-15T07:30:04;26.20;;;12.33;;
3939;SDS011;1984;48.312;9.244;2023-02-15T07:32:31;23.87;;;11.53;;
3939;SDS011;1984;48.312;9.244;2023-02-15T07:34:57;21.47;;;11.10;;
3939;SDS011;1984;48.312;9.244;2023-02-15T07:37:24;19.57;;;11.17;;
3939;SDS011;1984;48.312;9.244;2023-02-15T07:39:50;22.30;;;11.93;;
3939;SDS011;1984;48.312;9.244;2023-02-15T07:42:16;25.90;;;13.13;;
3939;SDS011;1984;48.312;9.244;2023-02-15T07:44:42;30.13;;;13.80;;
3939;SDS011;1984;48.312;9.244;2023-02-15T07:47:08;31.70;;;14.10;;
3939;SDS011;1984;48.312;9.244;2023-02-15T07:49:34;22.67;;;12.70;;
3939;SDS011;1984;48.312;9.244;2023-02-15T07:52:00;25.13;;;15.10;;
3939;SDS011;1984;48.312;9.244;2023-02-15T07:54:26;32.90;;;17.77;;
3939;SDS011;1984;48.312;9.244;2023-02-15T07:56:52;32.70;;;17.90;;
3939;SDS011;1984;48.312;9.244;2023-02-15T07:59:18;32.60;;;18.10;;
3939;SDS011;1984;48.312;9.244;2023-02-15T08:01:43;33.80;;;19.70;;
3939;SDS011;1984;48.312;9.244;2023-02-15T08:04:09;35.17;;;20.13;;
3939;SDS011;1984;48.312;9.244;2023-02-15T08:06:36;32.80;;;20.10;;
3939;SDS011;1984;48.312;9.244;2023-02-15T08:09:03;30.50;;;17.70;;
3939;SDS011;1984;48.312;9.244;2023-02-15T08:11:34;36.37;;;19.73;;
3939;SDS011;1984;48.312;9.244;2023-02-15T08:16:34;34.77;;;20.63;;
3939;SDS011;1984;48.312;9.244;2023-02-15T08:19:03;33.57;;;20.53;;
3939;SDS011;1984;48.312;9.244;2023-02-15T08:21:29;34.63;;;20.60;;
3939;SDS011;1984;48.312;9.244;2023-02-15T08:23:55;34.20;;;17.03;;
3939;SDS011;1984;48.312;9.244;2023-02-15T08:26:22;30.80;;;16.70;;
3939;SDS011;1984;48.312;9.244;2023-02-15T08:28:48;28.97;;;18.33;;
3939;SDS011;1984;48.312;9.244;2023-02-15T08:31:14;30.77;;;16.97;;
3939;SDS011;1984;48.312;9.244;2023-02-15T08:33:40;29.23;;;17.20;;
3939;SDS011;1984;48.312;9.244;2023-02-15T08:36:08;38.50;;;21.33;;
3939;SDS011;1984;48.312;9.244;2023-02-15T08:38:36;35.37;;;20.97;;
3939;SDS011;1984;48.312;9.244;2023-02-15T08:41:11;37.60;;;19.90;;
3939;SDS011;1984;48.312;9.244;2023-02-15T08:43:37;35.10;;;19.90;;
3939;SDS011;1984;48.312;9.244;2023-02-15T08:46:04;28.97;;;16.43;;
3939;SDS011;1984;48.312;9.244;2023-02-15T08:48:30;31.03;;;17.10;;
3939;SDS011;1984;48.312;9.244;2023-02-15T08:50:56;29.87;;;16.73;;
3939;SDS011;1984;48.312;9.244;2023-02-15T08:53:22;30.10;;;17.00;;
3939;SDS011;1984;48.312;9.244;2023-02-15T08:55:54;27.00;;;15.80;;
3939;SDS011;1984;48.312;9.244;2023-02-15T08:58:21;24.07;;;15.20;;
3939;SDS011;1984;48.312;9.244;2023-02-15T09:00:47;27.87;;;15.70;;
3939;SDS011;1984;48.312;9.244;2023-02-15T09:03:12;24.47;;;14.80;;
3939;SDS011;1984;48.312;9.244;2023-02-15T09:05:38;23.50;;;13.93;;
3939;SDS011;1984;48.312;9.244;2023-02-15T09:08:03;19.17;;;12.37;;
3939;SDS011;1984;48.312;9.244;2023-02-15T09:10:29;21.93;;;13.47;;
3939;SDS011;1984;48.312;9.244;2023-02-15T09:12:54;19.93;;;13.17;;
3939;SDS011;1984;48.312;9.244;2023-02-15T09:15:20;21.70;;;12.70;;
3939;SDS011;1984;48.312;9.244;2023-02-15T09:17:45;17.10;;;10.83;;
3939;SDS011;1984;48.312;9.244;2023-02-15T09:20:11;18.43;;;10.47;;
3939;SDS011;1984;48.312;9.244;2023-02-15T09:22:36;15.67;;;11.20;;
3939;SDS011;1984;48.312;9.244;2023-02-15T09:25:02;15.23;;;10.50;;
3939;SDS011;1984;48.312;9.244;2023-02-15T09:27:29;18.23;;;10.73;;
3939;SDS011;1984;48.312;9.244;2023-02-15T09:29:54;16.43;;;9.90;;
3939;SDS011;1984;48.312;9.244;2023-02-15T09:32:20;14.07;;;9.87;;
3939;SDS011;1984;48.312;9.244;2023-02-15T09:34:46;19.30;;;10.83;;
3939;SDS011;1984;48.312;9.244;2023-02-15T09:37:12;17.27;;;10.47;;
3939;SDS011;1984;48.312;9.244;2023-02-15T09:39:39;15.03;;;9.83;;
3939;SDS011;1984;48.312;9.244;2023-02-15T09:50:12;14.80;;;9.73;;
3939;SDS011;1984;48.312;9.244;2023-02-15T10:00:58;17.50;;;10.30;;
3939;SDS011;1984;48.312;9.244;2023-02-15T10:03:47;16.67;;;10.17;;
3939;SDS011;1984;48.312;9.244;2023-02-15T10:06:42;18.40;;;9.90;;
3939;SDS011;1984;48.312;9.244;2023-02-15T10:09:30;16.57;;;9.30;;
3939;SDS011;1984;48.312;9.244;2023-02-15T10:12:11;18.33;;;10.23;;
3939;SDS011;1984;48.312;9.244;2023-02-15T10:15:04;14.20;;;8.03;;
3939;SDS011;1984;48.312;9.244;2023-02-15T10:17:36;13.77;;;9.17;;
3939;SDS011;1984;48.312;9.244;2023-02-15T10:23:09;18.67;;;9.53;;
3939;SDS011;1984;48.312;9.244;2023-02-15T10:26:03;19.33;;;10.30;;
3939;SDS011;1984;48.312;9.244;2023-02-15T10:29:23;15.23;;;8.70;;
3939;SDS011;1984;48.312;9.244;2023-02-15T10:31:36;14.40;;;8.50;;
3939;SDS011;1984;48.312;9.244;2023-02-15T10:34:17;11.67;;;7.20;;
3939;SDS011;1984;48.312;9.244;2023-02-15T10:36:53;11.13;;;7.50;;
3939;SDS011;1984;48.312;9.244;2023-02-15T10:40:01;14.77;;;7.80;;
3939;SDS011;1984;48.312;9.244;2023-02-15T10:48:06;16.00;;;8.00;;
3939;SDS011;1984;48.312;9.244;2023-02-15T10:50:48;10.93;;;6.50;;
3939;SDS011;1984;48.312;9.244;2023-02-15T11:01:24;10.83;;;7.03;;
3939;SDS011;1984;48.312;9.244;2023-02-15T11:06:39;21.43;;;5.77;;
3939;SDS011;1984;48.312;9.244;2023-02-15T11:09:13;13.47;;;7.40;;
3939;SDS011;1984;48.312;9.244;2023-02-15T11:11:42;20.73;;;9.67;;
3939;SDS011;1984;48.312;9.244;2023-02-15T11:17:25;5.80;;;4.50;;
3939;SDS011;1984;48.312;9.244;2023-02-15T11:20:19;11.47;;;6.07;;
3939;SDS011;1984;48.312;9.244;2023-02-15T11:22:50;8.33;;;5.10;;
3939;SDS011;1984;48.312;9.244;2023-02-15T11:25:19;8.07;;;5.00;;
3939;SDS011;1984;48.312;9.244;2023-02-15T11:27:49;8.07;;;5.70;;
3939;SDS011;1984;48.312;9.244;2023-02-15T11:30:22;9.10;;;6.00;;
3939;SDS011;1984;48.312;9.244;2023-02-15T11:32:50;5.67;;;4.53;;
3939;SDS011;1984;48.312;9.244;2023-02-15T11:35:21;6.30;;;4.63;;
3939;SDS011;1984;48.312;9.244;2023-02-15T11:37:48;5.93;;;4.70;;
3939;SDS011;1984;48.312;9.244;2023-02-15T11:40:26;9.80;;;4.70;;
3939;SDS011;1984;48.312;9.244;2023-02-15T11:43:00;7.60;;;4.40;;
3939;SDS011;1984;48.312;9.244;2023-02-15T11:45:31;5.70;;;3.93;;
3939;SDS011;1984;48.312;9.244;2023-02-15T11:47:59;5.87;;;4.10;;
3939;SDS011;1984;48.312;9.244;2023-02-15T11:50:27;5.10;;;3.90;;
3939;SDS011;1984;48.312;9.244;2023-02-15T11:53:06;4.80;;;3.73;;
3939;SDS011;1984;48.312;9.244;2023-02-15T11:55:39;4.53;;;3.50;;
3939;SDS011;1984;48.312;9.244;2023-02-15T12:00:49;7.60;;;3.20;;
3939;SDS011;1984;48.312;9.244;2023-02-15T12:06:04;5.13;;;3.03;;
3939;SDS011;1984;48.312;9.244;2023-02-15T12:08:38;7.23;;;3.10;;
3939;SDS011;1984;48.312;9.244;2023-02-15T12:11:12;3.83;;;2.80;;
3939;SDS011;1984;48.312;9.244;2023-02-15T12:14:15;3.03;;;2.40;;
3939;SDS011;1984;48.312;9.244;2023-02-15T12:16:43;3.47;;;2.50;;
3939;SDS011;1984;48.312;9.244;2023-02-15T12:19:27;3.37;;;1.90;;
3939;SDS011;1984;48.312;9.244;2023-02-15T12:21:53;1.93;;;1.73;;
3939;SDS011;1984;48.312;9.244;2023-02-15T12:24:29;2.03;;;1.83;;
3939;SDS011;1984;48.312;9.244;2023-02-15T12:27:01;2.70;;;2.07;;
3939;SDS011;1984;48.312;9.244;2023-02-15T12:32:46;3.17;;;1.60;;
3939;SDS011;1984;48.312;9.244;2023-02-15T12:35:16;1.83;;;1.70;;
3939;SDS011;1984;48.312;9.244;2023-02-15T12:37:55;4.20;;;1.93;;
3939;SDS011;1984;48.312;9.244;2023-02-15T12:40:30;2.13;;;1.50;;
3939;SDS011;1984;48.312;9.244;2023-02-15T12:42:58;1.60;;;1.50;;
3939;SDS011;1984;48.312;9.244;2023-02-15T12:45:30;2.13;;;1.60;;
3939;SDS011;1984;48.312;9.244;2023-02-15T12:50:47;1.20;;;1.10;;
3939;SDS011;1984;48.312;9.244;2023-02-15T12:55:51;1.47;;;1.37;;
3939;SDS011;1984;48.312;9.244;2023-02-15T12:58:19;3.40;;;1.60;;
3939;SDS011;1984;48.312;9.244;2023-02-15T13:00:48;1.87;;;1.50;;
3939;SDS011;1984;48.312;9.244;2023-02-15T13:04:03;1.70;;;1.23;;
3939;SDS011;1984;48.312;9.244;2023-02-15T13:06:34;1.30;;;1.20;;
3939;SDS011;1984;48.312;9.244;2023-02-15T13:09:36;2.40;;;1.40;;
3939;SDS011;1984;48.312;9.244;2023-02-15T13:12:09;1.60;;;1.50;;
3939;SDS011;1984;48.312;9.244;2023-02-15T13:14:45;3.67;;;1.60;;
3939;SDS011;1984;48.312;9.244;2023-02-15T13:17:16;1.73;;;1.60;;
3939;SDS011;1984;48.312;9.244;2023-02-15T13:19:47;1.33;;;1.23;;
3939;SDS011;1984;48.312;9.244;2023-02-15T13:22:25;1.53;;;1.30;;
3939;SDS011;1984;48.312;9.244;2023-02-15T13:25:05;1.80;;;1.70;;
3939;SDS011;1984;48.312;9.244;2023-02-15T13:27:56;1.70;;;1.47;;
3939;SDS011;1984;48.312;9.244;2023-02-15T13:30:27;2.20;;;2.00;;
3939;SDS011;1984;48.312;9.244;2023-02-15T13:33:02;3.50;;;2.40;;
3939;SDS011;1984;48.312;9.244;2023-02-15T13:35:39;2.57;;;2.00;;
3939;SDS011;1984;48.312;9.244;2023-02-15T13:38:28;4.50;;;1.80;;
3939;SDS011;1984;48.312;9.244;2023-02-15T13:41:04;2.17;;;1.97;;
3939;SDS011;1984;48.312;9.244;2023-02-15T13:43:46;2.00;;;1.90;;
3939;SDS011;1984;48.312;9.244;2023-02-15T14:00:40;1.37;;;1.27;;
3939;SDS011;1984;48.312;9.244;2023-02-15T14:19:39;2.30;;;1.83;;
3939;SDS011;1984;48.312;9.244;2023-02-15T14:22:22;2.30;;;1.60;;
3939;SDS011;1984;48.312;9.244;2023-02-15T14:27:45;2.03;;;1.90;;
3939;SDS011;1984;48.312;9.244;2023-02-15T14:32:49;2.80;;;1.93;;
3939;SDS011;1984;48.312;9.244;2023-02-15T14:35:19;4.10;;;1.90;;
3939;SDS011;1984;48.312;9.244;2023-02-15T14:37:57;1.77;;;1.60;;
3939;SDS011;1984;48.312;9.244;2023-02-15T14:40:31;1.80;;;1.70;;
3939;SDS011;1984;48.312;9.244;2023-02-15T14:43:33;4.50;;;1.80;;
3939;SDS011;1984;48.312;9.244;2023-02-15T14:49:12;5.13;;;2.00;;
3939;SDS011;1984;48.312;9.244;2023-02-15T14:56:41;1.70;;;1.60;;
3939;SDS011;1984;48.312;9.244;2023-02-15T14:59:18;2.70;;;1.87;;
3939;SDS011;1984;48.312;9.244;2023-02-15T15:01:55;2.97;;;1.90;;
3939;SDS011;1984;48.312;9.244;2023-02-15T15:04:24;2.80;;;1.90;;
3939;SDS011;1984;48.312;9.244;2023-02-15T15:09:46;5.03;;;2.30;;
3939;SDS011;1984;48.312;9.244;2023-02-15T15:14:52;2.73;;;2.37;;
3939;SDS011;1984;48.312;9.244;2023-02-15T15:19:58;2.40;;;1.77;;
3939;SDS011;1984;48.312;9.244;2023-02-15T15:22:26;3.30;;;2.00;;
3939;SDS011;1984;48.312;9.244;2023-02-15T15:30:46;1.83;;;1.73;;
3939;SDS011;1984;48.312;9.244;2023-02-15T15:35:55;2.00;;;1.80;;
3939;SDS011;1984;48.312;9.244;2023-02-15T15:41:48;2.23;;;2.03;;
3939;SDS011;1984;48.312;9.244;2023-02-15T15:50:12;5.40;;;2.40;;
3939;SDS011;1984;48.312;9.244;2023-02-15T15:52:43;5.80;;;2.47;;
3939;SDS011;1984;48.312;9.244;2023-02-15T15:55:17;3.47;;;2.27;;
3939;SDS011;1984;48.312;9.244;2023-02-15T15:57:45;2.83;;;2.47;;
3939;SDS011;1984;48.312;9.244;2023-02-15T16:00:30;3.20;;;2.03;;
3939;SDS011;1984;48.312;9.244;2023-02-15T16:03:05;2.33;;;1.77;;
3939;SDS011;1984;48.312;9.244;2023-02-15T16:05:38;2.83;;;2.33;;
3939;SDS011;1984;48.312;9.244;2023-02-15T16:08:04;2.67;;;1.97;;
3939;SDS011;1984;48.312;9.244;2023-02-15T16:10:30;2.30;;;2.10;;
3939;SDS011;1984;48.312;9.244;2023-02-15T16:12:57;10.93;;;2.43;;
3939;SDS011;1984;48.312;9.244;2023-02-15T16:15:31;4.87;;;2.40;;
3939;SDS011;1984;48.312;9.244;2023-02-15T16:18:01;3.53;;;2.70;;
3939;SDS011;1984;48.312;9.244;2023-02-15T16:20:29;3.37;;;2.80;;
3939;SDS011;1984;48.312;9.244;2023-02-15T16:28:33;4.20;;;2.80;;
3939;SDS011;1984;48.312;9.244;2023-02-15T16:31:06;5.10;;;3.60;;
3939;SDS011;1984;48.312;9.244;2023-02-15T16:33:37;5.50;;;2.47;;
3939;SDS011;1984;48.312;9.244;2023-02-15T16:36:04;3.53;;;1.93;;
3939;SDS011;1984;48.312;9.244;2023-02-15T16:41:07;4.20;;;2.73;;
3939;SDS011;1984;48.312;9.244;2023-02-15T16:43:35;2.87;;;2.17;;
3939;SDS011;1984;48.312;9.244;2023-02-15T16:46:04;3.53;;;2.40;;
3939;SDS011;1984;48.312;9.244;2023-02-15T16:48:41;4.20;;;2.40;;
3939;SDS011;1984;48.312;9.244;2023-02-15T16:51:10;2.97;;;1.60;;
3939;SDS011;1984;48.312;9.244;2023-02-15T16:53:46;3.20;;;2.30;;
3939;SDS011;1984;48.312;9.244;2023-02-15T16:56:15;3.00;;;2.33;;
3939;SDS011;1984;48.312;9.244;2023-02-15T16:58:51;4.60;;;2.20;;
3939;SDS011;1984;48.312;9.244;2023-02-15T17:01:20;10.63;;;2.40;;
3939;SDS011;1984;48.312;9.244;2023-02-15T17:03:49;10.10;;;2.37;;
3939;SDS011;1984;48.312;9.244;2023-02-15T17:06:22;7.73;;;3.17;;
3939;SDS011;1984;48.312;9.244;2023-02-15T17:08:51;4.30;;;3.10;;
3939;SDS011;1984;48.312;9.244;2023-02-15T17:11:18;7.00;;;3.30;;
3939;SDS011;1984;48.312;9.244;2023-02-15T17:14:10;4.23;;;2.90;;
3939;SDS011;1984;48.312;9.244;2023-02-15T17:16:33;5.50;;;3.03;;
3939;SDS011;1984;48.312;9.244;2023-02-15T17:19:22;5.40;;;3.17;;
3939;SDS011;1984;48.312;9.244;2023-02-15T17:21:52;6.47;;;4.00;;
3939;SDS011;1984;48.312;9.244;2023-02-15T17:24:41;17.97;;;4.07;;
3939;SDS011;1984;48.312;9.244;2023-02-15T17:29:44;6.67;;;2.70;;
3939;SDS011;1984;48.312;9.244;2023-02-15T17:32:14;5.93;;;2.40;;
3939;SDS011;1984;48.312;9.244;2023-02-15T17:34:44;3.20;;;2.67;;
3939;SDS011;1984;48.312;9.244;2023-02-15T17:37:27;7.27;;;2.47;;
3939;SDS011;1984;48.312;9.244;2023-02-15T17:40:21;2.23;;;2.03;;
3939;SDS011;1984;48.312;9.244;2023-02-15T17:42:58;8.77;;;4.67;;
3939;SDS011;1984;48.312;9.244;2023-02-15T17:45:31;9.20;;;4.17;;
3939;SDS011;1984;48.312;9.244;2023-02-15T17:48:09;6.27;;;3.40;;
3939;SDS011;1984;48.312;9.244;2023-02-15T17:50:44;5.20;;;3.40;;
3939;SDS011;1984;48.312;9.244;2023-02-15T17:53:10;2.80;;;2.60;;
3939;SDS011;1984;48.312;9.244;2023-02-15T17:55:37;4.50;;;3.10;;
3939;SDS011;1984;48.312;9.244;2023-02-15T17:58:07;5.77;;;2.80;;
3939;SDS011;1984;48.312;9.244;2023-02-15T18:00:38;5.20;;;2.60;;
3939;SDS011;1984;48.312;9.244;2023-02-15T18:03:37;12.17;;;3.97;;
3939;SDS011;1984;48.312;9.244;2023-02-15T18:06:30;14.40;;;4.10;;